Time;durP1;ratioP1;P1;durP2;ratioP2;P2;SDS_P1;SDS_P2;PMS_P1;PMS_P2;Temp;Humidity;BMP_temperature;BMP_pressure;BME280_temperature;BME280_humidity;BME280_pressure;Samples;Min_cycle;Max_cycle;Signal;HPM_P1;HPM_P2
2022/10/26 00:02:12;;;;;;;6.68;4.30;;;24.00;52.90;;;;;;6219843;28;80312;-61
2022/10/26 00:05:13;;;;;;;6.63;4.18;;;24.00;53.00;;;;;;6224357;28;80395;-59
2022/10/26 00:08:13;;;;;;;6.07;4.05;;;24.00;53.00;;;;;;6217690;27;80980;-60
2022/10/26 00:11:14;;;;;;;6.57;3.92;;;24.00;52.90;;;;;;6223666;28;81150;-60
2022/10/26 00:14:14;;;;;;;7.10;4.32;;;24.00;53.00;;;;;;6223810;28;80975;-61
2022/10/26 00:17:15;;;;;;;6.00;3.90;;;24.00;52.90;;;;;;6226973;28;81094;-61
2022/10/26 00:20:16;;;;;;;8.07;4.35;;;24.00;53.10;;;;;;6222751;28;81254;-60
2022/10/26 00:23:16;;;;;;;6.35;4.00;;;24.00;52.80;;;;;;6225383;28;80521;-60
2022/10/26 00:26:17;;;;;;;7.93;4.25;;;23.90;52.90;;;;;;6223620;28;80286;-60
2022/10/26 00:29:17;;;;;;;6.55;4.03;;;24.00;52.90;;;;;;6226615;28;81627;-60
2022/10/26 00:32:18;;;;;;;4.85;3.78;;;24.00;52.90;;;;;;6220960;28;81554;-51
2022/10/26 00:35:18;;;;;;;5.70;4.15;;;23.90;52.70;;;;;;6225474;28;83712;-54
2022/10/26 00:38:19;;;;;;;6.53;3.70;;;24.00;52.90;;;;;;6221793;28;80590;-53
2022/10/26 00:41:20;;;;;;;7.30;4.20;;;23.90;52.70;;;;;;6223982;28;80527;-53
2022/10/26 00:44:20;;;;;;;7.57;3.72;;;24.00;52.80;;;;;;6223534;28;80500;-54
2022/10/26 00:47:21;;;;;;;6.75;3.85;;;24.00;52.90;;;;;;6225008;28;81004;-58
2022/10/26 00:50:21;;;;;;;5.53;3.72;;;23.90;52.70;;;;;;6228599;28;80495;-51
2022/10/26 00:53:22;;;;;;;5.80;3.97;;;24.00;52.80;;;;;;6230167;28;80631;-53
2022/10/26 00:56:22;;;;;;;5.47;4.18;;;23.90;52.70;;;;;;6245565;28;81189;-49
2022/10/26 00:59:23;;;;;;;7.20;3.90;;;23.90;52.70;;;;;;6225120;28;84971;-54
2022/10/26 01:02:23;;;;;;;7.10;4.55;;;23.90;52.70;;;;;;6240126;28;80683;-51
2022/10/26 01:05:24;;;;;;;7.63;4.05;;;23.90;52.70;;;;;;6226575;28;84623;-53
2022/10/26 01:08:26;;;;;;;7.25;4.45;;;23.90;52.70;;;;;;6220246;28;80484;-51
2022/10/26 01:11:27;;;;;;;6.55;3.97;;;23.90;52.70;;;;;;6221438;28;83742;-53
2022/10/26 01:14:27;;;;;;;7.95;4.47;;;23.90;52.60;;;;;;6228292;28;81499;-50
2022/10/26 01:17:28;;;;;;;7.72;4.70;;;23.90;52.70;;;;;;6220256;28;85455;-53
2022/10/26 01:20:29;;;;;;;6.45;4.15;;;23.90;52.60;;;;;;6224006;28;80103;-53
2022/10/26 01:23:29;;;;;;;6.70;4.22;;;23.90;52.60;;;;;;6225714;28;80425;-52
2022/10/26 01:26:29;;;;;;;11.30;4.63;;;23.90;52.60;;;;;;6225059;28;80585;-60
2022/10/26 01:29:30;;;;;;;7.32;4.57;;;23.90;52.50;;;;;;6227287;28;80708;-60
2022/10/26 01:32:31;;;;;;;8.02;4.53;;;23.90;52.50;;;;;;6222144;28;80816;-61
2022/10/26 01:35:31;;;;;;;6.00;4.15;;;23.90;52.60;;;;;;6224668;28;80699;-61
2022/10/26 01:38:32;;;;;;;7.22;4.65;;;23.90;52.50;;;;;;6225761;28;82020;-58
2022/10/26 01:41:32;;;;;;;6.28;4.45;;;23.90;52.50;;;;;;6239866;27;80542;-59
2022/10/26 01:44:33;;;;;;;7.85;4.70;;;23.90;52.50;;;;;;6226531;27;80403;-54
2022/10/26 01:47:33;;;;;;;9.13;4.90;;;23.90;52.50;;;;;;6221987;28;83388;-53
2022/10/26 01:50:34;;;;;;;6.07;4.22;;;23.90;52.50;;;;;;6227482;28;80584;-53
2022/10/26 01:53:35;;;;;;;8.75;4.80;;;23.90;52.40;;;;;;6223948;28;80452;-54
2022/10/26 01:56:35;;;;;;;6.75;4.38;;;23.90;52.50;;;;;;6223352;28;80512;-55
2022/10/26 01:59:36;;;;;;;6.55;4.32;;;23.90;52.50;;;;;;6223872;28;83889;-54
2022/10/26 02:02:36;;;;;;;8.82;4.78;;;23.90;52.50;;;;;;6223627;28;80269;-55
2022/10/26 02:05:37;;;;;;;7.45;4.55;;;23.90;52.60;;;;;;6214190;28;82355;-52
2022/10/26 02:08:39;;;;;;;7.50;4.70;;;23.90;52.50;;;;;;6223106;28;80828;-53
2022/10/26 02:11:40;;;;;;;6.68;4.40;;;23.90;52.40;;;;;;6222401;28;81094;-55
2022/10/26 02:14:40;;;;;;;6.40;3.97;;;23.90;52.50;;;;;;6223737;27;80459;-50
2022/10/26 02:17:41;;;;;;;7.85;4.32;;;23.90;52.50;;;;;;6237730;28;81204;-54
2022/10/26 02:20:41;;;;;;;6.13;4.43;;;23.90;52.40;;;;;;6226046;28;80291;-59
2022/10/26 02:23:42;;;;;;;8.20;4.35;;;23.90;52.50;;;;;;6222975;28;87703;-59
2022/10/26 02:26:42;;;;;;;7.65;4.82;;;23.90;52.50;;;;;;6203390;28;83821;-59
2022/10/26 02:29:43;;;;;;;7.60;4.22;;;23.90;52.30;;;;;;6226826;28;80249;-60
2022/10/26 02:32:43;;;;;;;7.57;4.30;;;23.90;52.30;;;;;;6220870;28;80437;-59
2022/10/26 02:35:44;;;;;;;8.65;4.93;;;23.90;52.30;;;;;;6222081;28;80635;-59
2022/10/26 02:38:44;;;;;;;9.98;5.10;;;23.90;52.30;;;;;;6225222;28;80596;-60
2022/10/26 02:41:45;;;;;;;8.23;4.63;;;23.90;52.30;;;;;;6222503;28;80401;-60
2022/10/26 02:44:45;;;;;;;6.80;4.80;;;23.90;52.30;;;;;;6223345;28;80834;-60
2022/10/26 02:47:46;;;;;;;6.07;4.07;;;23.90;52.20;;;;;;6221521;28;80494;-60
2022/10/26 02:50:46;;;;;;;7.43;4.50;;;23.90;52.20;;;;;;6219191;28;83572;-59
2022/10/26 02:53:47;;;;;;;7.57;4.05;;;23.90;52.20;;;;;;6227092;28;80566;-61
2022/10/26 02:56:47;;;;;;;9.20;5.00;;;23.90;52.20;;;;;;6220989;28;82860;-59
2022/10/26 02:59:48;;;;;;;9.70;5.22;;;23.90;52.10;;;;;;6223541;28;85591;-60
2022/10/26 03:02:48;;;;;;;7.68;4.15;;;23.90;52.10;;;;;;6221502;28;80507;-60
2022/10/26 03:05:49;;;;;;;9.68;4.90;;;23.90;52.10;;;;;;6226944;28;83087;-59
2022/10/26 03:08:49;;;;;;;7.25;4.75;;;23.90;52.10;;;;;;6215281;28;81896;-58
2022/10/26 03:11:50;;;;;;;8.95;5.03;;;23.90;52.00;;;;;;6221261;28;80836;-59
2022/10/26 03:14:50;;;;;;;8.85;4.78;;;23.90;52.00;;;;;;6216727;28;80934;-52
2022/10/26 03:17:51;;;;;;;7.07;4.47;;;23.90;52.00;;;;;;6222010;28;85136;-59
2022/10/26 03:20:51;;;;;;;6.72;4.40;;;23.90;51.90;;;;;;6218814;28;80371;-59
2022/10/26 03:23:52;;;;;;;9.38;5.15;;;23.90;51.90;;;;;;6218159;28;81298;-59
2022/10/26 03:26:53;;;;;;;5.40;4.38;;;23.90;51.90;;;;;;6227406;28;83946;-60
2022/10/26 03:29:53;;;;;;;8.43;4.53;;;23.90;51.80;;;;;;6244933;27;80384;-60
2022/10/26 03:32:54;;;;;;;10.73;4.78;;;23.80;51.80;;;;;;6244512;28;86952;-60
2022/10/26 03:35:55;;;;;;;6.60;4.60;;;23.90;51.80;;;;;;6245227;27;80467;-48
2022/10/26 03:38:56;;;;;;;6.38;4.38;;;23.90;51.70;;;;;;6236126;27;81323;-50
2022/10/26 03:41:56;;;;;;;6.90;4.15;;;23.90;51.60;;;;;;6234694;27;81222;-52
2022/10/26 03:44:57;;;;;;;6.38;4.55;;;23.90;51.80;;;;;;6226995;28;81149;-49
2022/10/26 03:47:57;;;;;;;7.78;4.80;;;23.90;51.80;;;;;;6226374;28;80102;-49
2022/10/26 03:50:58;;;;;;;9.07;4.95;;;23.90;51.80;;;;;;6225967;28;87602;-48
2022/10/26 03:53:58;;;;;;;11.35;4.80;;;23.90;51.70;;;;;;6229151;28;80149;-59
2022/10/26 03:56:59;;;;;;;8.35;4.57;;;24.00;51.80;;;;;;6224112;28;85695;-59
2022/10/26 04:00:00;;;;;;;8.90;4.90;;;24.00;51.80;;;;;;6225380;28;86379;-59
2022/10/26 04:03:00;;;;;;;6.80;4.03;;;24.00;51.70;;;;;;6226401;28;80378;-58
2022/10/26 04:06:01;;;;;;;6.72;3.92;;;24.00;51.70;;;;;;6227148;28;85224;-58
2022/10/26 04:09:02;;;;;;;7.28;4.30;;;24.00;51.80;;;;;;6221836;28;80608;-58
2022/10/26 04:12:03;;;;;;;7.28;4.03;;;24.10;51.70;;;;;;6225449;28;81589;-59
2022/10/26 04:15:05;;;;;;;9.23;5.05;;;24.10;51.80;;;;;;6227128;28;80483;-59
2022/10/26 04:18:06;;;;;;;7.15;4.25;;;24.10;51.80;;;;;;6223520;28;83189;-60
2022/10/26 04:21:06;;;;;;;8.90;4.30;;;24.10;52.00;;;;;;6215956;28;80016;-60
2022/10/26 04:24:07;;;;;;;6.03;3.88;;;24.10;52.10;;;;;;6210569;28;84274;-61
2022/10/26 04:27:07;;;;;;;7.38;4.13;;;24.10;52.20;;;;;;6224704;28;80039;-61
2022/10/26 04:30:08;;;;;;;7.18;4.30;;;24.20;52.20;;;;;;6225309;28;81106;-60
2022/10/26 04:33:09;;;;;;;8.60;4.20;;;24.20;52.20;;;;;;6220119;28;81783;-60
2022/10/26 04:36:09;;;;;;;8.82;4.45;;;24.20;52.10;;;;;;6224894;28;80530;-60
2022/10/26 04:39:10;;;;;;;7.88;4.28;;;24.20;52.20;;;;;;6224711;28;86041;-59
2022/10/26 04:42:10;;;;;;;9.82;3.92;;;24.20;52.50;;;;;;6224493;28;80573;-58
2022/10/26 04:45:11;;;;;;;11.18;4.53;;;24.30;52.40;;;;;;6215537;28;81105;-60
2022/10/26 04:48:12;;;;;;;10.60;4.82;;;24.30;52.40;;;;;;6217097;28;81197;-59
2022/10/26 04:51:12;;;;;;;10.77;4.57;;;24.30;52.30;;;;;;6213409;28;80825;-60
2022/10/26 04:54:13;;;;;;;9.88;4.88;;;24.30;52.20;;;;;;6214059;28;80356;-60
2022/10/26 04:57:13;;;;;;;6.82;3.88;;;24.30;52.10;;;;;;6217783;28;81635;-59
2022/10/26 05:00:14;;;;;;;10.60;4.15;;;24.30;52.00;;;;;;6210494;28;81116;-60
2022/10/26 05:03:14;;;;;;;13.07;4.85;;;24.30;52.30;;;;;;6224512;28;80339;-60
2022/10/26 05:06:15;;;;;;;7.30;3.88;;;24.30;52.40;;;;;;6217611;28;80044;-61
2022/10/26 05:09:15;;;;;;;8.65;4.38;;;24.30;52.50;;;;;;6214177;28;83476;-61
2022/10/26 05:12:16;;;;;;;5.75;4.03;;;24.30;52.50;;;;;;6223055;28;80427;-60
2022/10/26 05:15:16;;;;;;;11.75;4.88;;;24.30;52.60;;;;;;6225766;28;83485;-59
2022/10/26 05:18:17;;;;;;;11.32;4.68;;;24.30;52.60;;;;;;6221183;28;80605;-60
2022/10/26 05:21:20;;;;;;;6.88;4.47;;;24.30;52.70;;;;;;6203340;28;80297;-60
2022/10/26 05:24:21;;;;;;;11.98;5.15;;;24.30;52.80;;;;;;6213598;28;80943;-60
2022/10/26 05:27:21;;;;;;;22.58;4.82;;;24.30;53.30;;;;;;6207887;28;80557;-60
2022/10/26 05:30:22;;;;;;;10.85;4.80;;;24.30;53.40;;;;;;6218770;28;84159;-62
2022/10/26 05:33:22;;;;;;;6.60;4.43;;;24.30;53.40;;;;;;6200335;28;80724;-61
2022/10/26 05:36:23;;;;;;;10.32;5.72;;;24.30;53.40;;;;;;6216692;28;81002;-60
2022/10/26 05:39:23;;;;;;;11.75;4.30;;;24.30;53.30;;;;;;6216187;28;81034;-59
2022/10/26 05:42:24;;;;;;;19.17;7.10;;;24.30;53.40;;;;;;6212193;28;80491;-59
2022/10/26 05:45:24;;;;;;;18.85;11.52;;;24.30;53.50;;;;;;6211747;28;80767;-60
2022/10/26 05:48:25;;;;;;;26.98;11.88;;;24.30;53.90;;;;;;6216259;28;87745;-59
2022/10/26 05:51:25;;;;;;;21.17;12.43;;;24.40;53.70;;;;;;6233897;28;83342;-61
2022/10/26 05:54:26;;;;;;;42.22;27.30;;;24.40;53.70;;;;;;6214903;28;84031;-61
2022/10/26 05:57:26;;;;;;;44.17;27.40;;;24.30;53.50;;;;;;6219390;28;89499;-59
2022/10/26 06:00:27;;;;;;;41.85;20.88;;;24.30;53.90;;;;;;6219941;28;83173;-59
2022/10/26 06:03:28;;;;;;;38.08;19.58;;;24.30;52.90;;;;;;6215252;28;88537;-60
2022/10/26 06:06:28;;;;;;;34.08;17.23;;;24.30;53.20;;;;;;6212259;28;84104;-60
2022/10/26 06:09:29;;;;;;;25.23;14.85;;;24.30;53.00;;;;;;6216477;28;83475;-62
2022/10/26 06:12:29;;;;;;;28.15;14.07;;;24.30;52.70;;;;;;6220263;28;84621;-57
2022/10/26 06:15:30;;;;;;;21.95;12.60;;;24.30;52.30;;;;;;6217675;28;82781;-60
2022/10/26 06:18:34;;;;;;;20.38;10.90;;;24.30;51.70;;;;;;6218218;28;83330;-60
2022/10/26 06:21:34;;;;;;;26.13;11.18;;;24.30;51.80;;;;;;6206536;28;83092;-61
2022/10/26 06:24:35;;;;;;;24.58;10.93;;;24.30;51.50;;;;;;6220003;28;87257;-59
2022/10/26 06:27:35;;;;;;;25.35;10.43;;;24.30;50.90;;;;;;6191546;28;86311;-60
2022/10/26 06:30:36;;;;;;;23.83;9.25;;;24.30;51.00;;;;;;6205879;28;86630;-60
2022/10/26 06:33:36;;;;;;;23.73;9.45;;;24.30;50.80;;;;;;6211677;28;81802;-64
2022/10/26 06:36:37;;;;;;;18.08;8.80;;;24.30;50.60;;;;;;6211037;28;80915;-60
2022/10/26 06:39:37;;;;;;;24.80;9.30;;;24.30;50.50;;;;;;6208995;28;81544;-62
2022/10/26 06:42:38;;;;;;;46.78;24.15;;;24.40;50.40;;;;;;6211203;28;81578;-61
2022/10/26 06:45:38;;;;;;;65.03;31.65;;;24.40;50.60;;;;;;6200069;28;83186;-62
2022/10/26 06:48:39;;;;;;;62.35;33.28;;;24.40;50.30;;;;;;6209798;28;83920;-61
2022/10/26 06:51:40;;;;;;;112.63;58.42;;;24.40;50.10;;;;;;6213123;28;83842;-63
2022/10/26 06:54:41;;;;;;;81.07;45.90;;;24.50;50.10;;;;;;6213063;28;83248;-61
2022/10/26 06:57:42;;;;;;;133.57;69.63;;;24.50;50.00;;;;;;6208269;28;83069;-60
2022/10/26 07:00:42;;;;;;;147.70;72.82;;;24.60;49.90;;;;;;6211298;28;84592;-59
2022/10/26 07:03:43;;;;;;;132.27;65.85;;;24.60;49.80;;;;;;6214544;28;84246;-59
2022/10/26 07:06:43;;;;;;;105.35;53.17;;;24.60;49.80;;;;;;6201801;28;83206;-56
2022/10/26 07:09:44;;;;;;;85.85;43.97;;;24.60;49.70;;;;;;6210577;28;83561;-58
2022/10/26 07:12:44;;;;;;;83.88;38.88;;;24.60;49.60;;;;;;6216035;28;86236;-59
2022/10/26 07:15:46;;;;;;;76.00;34.13;;;24.60;49.60;;;;;;6212382;28;83290;-59
2022/10/26 07:18:47;;;;;;;67.85;30.38;;;24.50;49.50;;;;;;6222772;28;86539;-58
2022/10/26 07:21:47;;;;;;;49.05;26.95;;;24.60;49.50;;;;;;6221145;28;83179;-59
2022/10/26 07:24:50;;;;;;;58.10;23.58;;;24.60;49.50;;;;;;6221603;28;83892;-59
2022/10/26 07:27:50;;;;;;;41.33;20.17;;;24.60;49.80;;;;;;6224280;28;82801;-58
2022/10/26 07:30:51;;;;;;;40.03;17.80;;;24.70;49.70;;;;;;6219454;28;83005;-59
2022/10/26 07:33:51;;;;;;;32.75;16.33;;;24.70;49.50;;;;;;6209084;28;83224;-59
2022/10/26 07:36:52;;;;;;;33.58;15.25;;;24.70;49.60;;;;;;6201543;28;83275;-58
2022/10/26 07:39:52;;;;;;;28.55;12.13;;;24.70;49.40;;;;;;6200587;28;82938;-58
2022/10/26 07:42:53;;;;;;;21.13;10.57;;;24.70;49.50;;;;;;6201596;28;83850;-58
2022/10/26 07:45:53;;;;;;;18.10;9.77;;;24.70;49.50;;;;;;6205942;28;83015;-58
2022/10/26 07:48:54;;;;;;;20.90;8.60;;;24.80;49.60;;;;;;6214045;28;83085;-58
2022/10/26 07:51:54;;;;;;;17.55;8.65;;;24.80;49.50;;;;;;6213149;28;80472;-62
2022/10/26 07:54:55;;;;;;;18.90;8.38;;;24.80;49.50;;;;;;6223752;28;80499;-62
2022/10/26 07:57:55;;;;;;;17.23;7.72;;;24.90;49.70;;;;;;6219005;28;80914;-64
2022/10/26 08:00:56;;;;;;;14.70;6.72;;;24.90;49.50;;;;;;6225796;28;80550;-64
2022/10/26 08:03:57;;;;;;;12.32;6.05;;;24.90;49.40;;;;;;6219939;28;87759;-63
2022/10/26 08:06:57;;;;;;;12.55;6.57;;;24.90;49.30;;;;;;6226554;28;80435;-63
2022/10/26 08:09:58;;;;;;;14.18;4.95;;;25.00;49.60;;;;;;6220185;28;81356;-62
2022/10/26 08:12:58;;;;;;;9.90;5.20;;;25.10;49.30;;;;;;6225988;28;80572;-65
2022/10/26 08:15:59;;;;;;;15.57;5.32;;;25.10;49.30;;;;;;6226576;28;85084;-63
2022/10/26 08:19:00;;;;;;;13.98;4.78;;;25.20;49.40;;;;;;6224808;28;80099;-63
2022/10/26 08:22:00;;;;;;;10.32;4.80;;;25.20;49.10;;;;;;6226989;28;80428;-62
2022/10/26 08:25:01;;;;;;;8.00;4.45;;;25.30;49.30;;;;;;6219412;28;83771;-63
2022/10/26 08:28:02;;;;;;;11.30;5.22;;;25.40;49.30;;;;;;6233715;28;82238;-61
2022/10/26 08:31:02;;;;;;;9.35;4.20;;;25.40;49.30;;;;;;6227798;28;81349;-62
2022/10/26 08:34:03;;;;;;;6.25;3.78;;;25.40;49.20;;;;;;6236429;28;80941;-60
2022/10/26 08:37:03;;;;;;;10.70;3.90;;;25.50;49.10;;;;;;6221001;28;80372;-62
2022/10/26 08:40:04;;;;;;;7.60;4.43;;;25.50;49.00;;;;;;6225342;28;80675;-61
2022/10/26 08:43:04;;;;;;;11.02;4.13;;;25.50;49.10;;;;;;6214183;28;80922;-61
2022/10/26 08:46:05;;;;;;;6.18;3.30;;;25.50;48.90;;;;;;6209117;28;82197;-58
2022/10/26 08:49:05;;;;;;;11.35;3.75;;;25.60;49.00;;;;;;6220382;28;83780;-57
2022/10/26 08:52:06;;;;;;;5.95;2.95;;;25.60;48.70;;;;;;6204268;28;80927;-55
2022/10/26 08:55:06;;;;;;;10.57;3.83;;;25.70;49.00;;;;;;6218101;28;82320;-56
2022/10/26 08:58:07;;;;;;;5.13;3.08;;;25.70;49.20;;;;;;6206477;28;80352;-57
2022/10/26 09:01:07;;;;;;;8.13;3.15;;;25.70;49.20;;;;;;6219699;28;80405;-58
2022/10/26 09:04:08;;;;;;;6.07;3.00;;;25.70;49.20;;;;;;6216523;28;81572;-50
2022/10/26 09:07:08;;;;;;;5.95;2.85;;;25.90;49.30;;;;;;6207169;28;80271;-48
2022/10/26 09:10:09;;;;;;;7.55;3.20;;;25.90;49.30;;;;;;6221840;28;84816;-47
2022/10/26 09:13:10;;;;;;;5.00;2.72;;;25.90;49.30;;;;;;6223569;28;82029;-51
2022/10/26 09:16:10;;;;;;;9.82;3.40;;;25.90;49.20;;;;;;6228740;28;80319;-49
2022/10/26 09:19:11;;;;;;;8.10;3.10;;;25.90;48.90;;;;;;6222754;28;81368;-50
2022/10/26 09:22:11;;;;;;;8.35;3.08;;;26.00;49.10;;;;;;6217409;28;80579;-57
2022/10/26 09:25:12;;;;;;;6.78;2.63;;;26.00;48.90;;;;;;6215553;28;84417;-59
2022/10/26 09:28:12;;;;;;;9.82;2.97;;;26.10;48.20;;;;;;6216418;28;82621;-59
2022/10/26 09:31:13;;;;;;;8.55;2.50;;;26.10;47.70;;;;;;6226780;28;81257;-59
2022/10/26 09:34:13;;;;;;;5.03;2.53;;;26.20;47.70;;;;;;6219450;28;80332;-60
2022/10/26 09:37:14;;;;;;;6.35;2.47;;;26.20;47.30;;;;;;6220242;28;80984;-60
2022/10/26 09:40:14;;;;;;;4.15;2.35;;;26.20;47.50;;;;;;6214419;28;80456;-59
2022/10/26 09:43:15;;;;;;;4.50;2.30;;;26.20;47.30;;;;;;6222596;28;80250;-58
2022/10/26 09:46:15;;;;;;;5.53;2.75;;;26.30;47.40;;;;;;6209943;28;81134;-60
2022/10/26 09:49:16;;;;;;;4.25;2.30;;;26.30;47.50;;;;;;6211219;28;80845;-58
2022/10/26 09:52:16;;;;;;;4.72;2.28;;;26.40;47.40;;;;;;6214080;28;80811;-60
2022/10/26 09:55:17;;;;;;;7.68;2.53;;;26.40;47.60;;;;;;6211913;28;80789;-60
2022/10/26 09:58:18;;;;;;;3.35;2.17;;;26.40;47.70;;;;;;6217105;28;81530;-62
2022/10/26 10:01:19;;;;;;;4.82;2.63;;;26.50;47.40;;;;;;6223333;28;80115;-61
2022/10/26 10:04:19;;;;;;;5.82;2.60;;;26.50;47.70;;;;;;6217967;28;81100;-62
2022/10/26 10:07:20;;;;;;;5.15;2.72;;;26.60;47.20;;;;;;6211576;28;81926;-63
2022/10/26 10:10:20;;;;;;;7.15;2.60;;;26.60;47.30;;;;;;6210667;28;80811;-59
2022/10/26 10:13:21;;;;;;;5.63;2.33;;;26.70;46.90;;;;;;6224232;28;80438;-62
2022/10/26 10:16:22;;;;;;;5.75;2.40;;;26.60;45.90;;;;;;6227182;28;87749;-60
2022/10/26 10:19:23;;;;;;;4.57;2.40;;;26.70;46.00;;;;;;6223799;28;80480;-60
2022/10/26 10:22:23;;;;;;;5.57;2.67;;;26.70;45.80;;;;;;6223988;28;81456;-62
2022/10/26 10:25:24;;;;;;;4.60;2.25;;;26.80;46.30;;;;;;6222616;28;85142;-62
2022/10/26 10:28:24;;;;;;;2.70;2.10;;;26.80;46.20;;;;;;6219871;28;80402;-63
2022/10/26 10:31:25;;;;;;;7.03;3.00;;;26.80;46.00;;;;;;6221788;28;81384;-63
2022/10/26 10:34:25;;;;;;;6.47;2.30;;;26.80;46.10;;;;;;6220164;28;80402;-63
2022/10/26 10:37:26;;;;;;;4.60;2.00;;;26.90;46.20;;;;;;6223108;28;80969;-64
2022/10/26 10:40:26;;;;;;;4.70;2.25;;;26.90;45.70;;;;;;6219781;28;81003;-64
2022/10/26 10:43:27;;;;;;;6.95;2.53;;;26.80;45.60;;;;;;6216653;28;81184;-64
2022/10/26 10:46:28;;;;;;;7.25;2.90;;;26.80;45.80;;;;;;6204942;28;80657;-65
2022/10/26 10:49:28;;;;;;;2.92;2.03;;;26.80;45.70;;;;;;6201561;28;80671;-64
2022/10/26 10:52:29;;;;;;;6.78;2.30;;;26.80;45.20;;;;;;6212009;28;83344;-64
2022/10/26 10:55:29;;;;;;;6.55;2.53;;;26.80;45.30;;;;;;6209335;28;80450;-63
2022/10/26 10:58:30;;;;;;;29.85;9.05;;;26.80;46.10;;;;;;6224317;28;85733;-63
2022/10/26 11:01:30;;;;;;;24.65;5.95;;;26.90;47.30;;;;;;6217824;28;80897;-67
2022/10/26 11:04:32;;;;;;;17.52;6.25;;;26.90;46.10;;;;;;6219880;28;80600;-65
2022/10/26 11:07:33;;;;;;;15.68;5.03;;;26.80;45.70;;;;;;6219627;28;80575;-65
2022/10/26 11:10:34;;;;;;;16.80;5.72;;;26.90;45.90;;;;;;6220139;28;80347;-66
2022/10/26 11:13:34;;;;;;;27.88;8.45;;;27.00;46.20;;;;;;6223669;28;81157;-63
2022/10/26 11:16:35;;;;;;;30.42;9.45;;;26.90;46.50;;;;;;6220541;28;80738;-63
2022/10/26 11:19:35;;;;;;;46.63;15.63;;;26.80;47.00;;;;;;6217102;28;80652;-65
2022/10/26 11:22:36;;;;;;;45.67;17.83;;;26.80;47.00;;;;;;6201084;28;82946;-64
2022/10/26 11:25:36;;;;;;;45.35;22.40;;;26.70;47.60;;;;;;6199156;28;82798;-63
2022/10/26 11:28:37;;;;;;;53.58;24.33;;;26.70;46.60;;;;;;6206056;28;83232;-62
2022/10/26 11:31:40;;;;;;;51.67;20.65;;;26.70;46.60;;;;;;6209195;28;82970;-62
2022/10/26 11:34:41;;;;;;;58.83;32.13;;;26.70;46.70;;;;;;6206446;28;86340;-63
2022/10/26 11:37:41;;;;;;;71.00;44.65;;;26.70;46.50;;;;;;6204136;28;83028;-64
2022/10/26 11:40:42;;;;;;;76.72;46.80;;;26.60;46.20;;;;;;6207585;28;83500;-63
2022/10/26 11:43:42;;;;;;;54.50;35.40;;;26.60;45.80;;;;;;6217936;28;82949;-64
2022/10/26 11:46:43;;;;;;;44.03;25.35;;;26.50;45.60;;;;;;6199779;28;83933;-62
2022/10/26 11:49:43;;;;;;;30.42;15.88;;;26.60;45.30;;;;;;6198282;28;82877;-52
2022/10/26 11:52:44;;;;;;;22.67;10.75;;;26.50;44.80;;;;;;6204424;28;83518;-52
2022/10/26 11:55:45;;;;;;;17.85;9.15;;;26.50;45.10;;;;;;6196377;28;83467;-53
2022/10/26 11:58:45;;;;;;;19.15;6.60;;;26.40;45.00;;;;;;6207812;28;81799;-55
2022/10/26 12:01:46;;;;;;;11.40;3.83;;;26.40;45.50;;;;;;6207362;28;84259;-55
2022/10/26 12:04:46;;;;;;;10.50;3.90;;;26.30;44.70;;;;;;6214236;28;80600;-52
2022/10/26 12:07:47;;;;;;;7.10;3.40;;;26.30;44.40;;;;;;6207747;28;82055;-58
2022/10/26 12:10:47;;;;;;;7.80;2.58;;;26.30;44.50;;;;;;6214930;28;80410;-58
2022/10/26 12:13:48;;;;;;;7.85;2.83;;;26.20;44.40;;;;;;6227327;28;80247;-59
2022/10/26 12:16:48;;;;;;;4.32;2.55;;;26.20;44.40;;;;;;6224956;28;81681;-59
2022/10/26 12:19:49;;;;;;;5.35;2.42;;;26.20;44.50;;;;;;6224632;28;80460;-58
2022/10/26 12:22:49;;;;;;;4.10;2.10;;;26.20;44.60;;;;;;6208045;28;81522;-58
2022/10/26 12:25:50;;;;;;;7.60;2.40;;;26.20;44.70;;;;;;6206474;28;80269;-51
2022/10/26 12:28:50;;;;;;;5.60;2.13;;;26.20;44.80;;;;;;6220556;28;82311;-53
2022/10/26 12:31:51;;;;;;;6.03;2.38;;;26.30;44.70;;;;;;6223752;28;82841;-53
2022/10/26 12:34:53;;;;;;;4.72;2.50;;;26.20;44.60;;;;;;6217606;28;80789;-55
2022/10/26 12:37:54;;;;;;;2.75;2.00;;;26.20;44.30;;;;;;6216856;28;82010;-50
2022/10/26 12:40:54;;;;;;;9.63;2.67;;;26.20;44.60;;;;;;6210492;28;81569;-53
2022/10/26 12:43:55;;;;;;;7.82;1.98;;;26.20;44.60;;;;;;6211940;28;80363;-48
2022/10/26 12:46:56;;;;;;;4.65;1.83;;;26.30;43.60;;;;;;6215948;28;80618;-55
2022/10/26 12:49:56;;;;;;;9.43;2.40;;;26.30;44.20;;;;;;6220003;28;80502;-52
2022/10/26 12:52:58;;;;;;;3.92;2.17;;;26.20;43.90;;;;;;6226796;28;80417;-53
2022/10/26 12:55:58;;;;;;;4.30;1.92;;;26.00;43.30;;;;;;6222990;28;82607;-52
2022/10/26 12:58:59;;;;;;;4.15;1.90;;;25.90;43.20;;;;;;6228828;28;80933;-51
2022/10/26 13:02:00;;;;;;;5.15;2.00;;;25.90;43.40;;;;;;6224266;28;84103;-51
2022/10/26 13:05:00;;;;;;;5.53;1.95;;;25.80;43.10;;;;;;6221002;28;85552;-66
2022/10/26 13:08:01;;;;;;;3.88;1.73;;;25.70;43.10;;;;;;6198520;28;80439;-67
2022/10/26 13:11:02;;;;;;;4.20;1.95;;;25.80;43.10;;;;;;6218048;28;85432;-65
2022/10/26 13:14:02;;;;;;;4.70;2.17;;;25.80;43.40;;;;;;6218420;28;85177;-63
2022/10/26 13:17:03;;;;;;;3.10;1.77;;;25.90;43.80;;;;;;6214720;28;81589;-65
2022/10/26 13:20:03;;;;;;;5.88;2.30;;;25.90;43.70;;;;;;6215926;28;81236;-64
2022/10/26 13:23:04;;;;;;;3.10;1.75;;;25.90;43.20;;;;;;6221948;28;80941;-66
2022/10/26 13:26:04;;;;;;;3.10;2.13;;;25.80;43.00;;;;;;6215636;28;80508;-66
2022/10/26 13:29:05;;;;;;;3.55;1.83;;;25.90;42.90;;;;;;6220410;28;83238;-66
2022/10/26 13:32:05;;;;;;;4.15;2.35;;;25.90;43.10;;;;;;6194733;28;81830;-65
2022/10/26 13:35:06;;;;;;;5.40;2.10;;;25.90;43.50;;;;;;6199932;28;85279;-63
2022/10/26 13:38:06;;;;;;;48.95;25.95;;;26.00;43.70;;;;;;6200451;28;80169;-64
2022/10/26 13:41:07;;;;;;;70.13;38.38;;;26.10;43.60;;;;;;6196035;28;84103;-62
2022/10/26 13:44:07;;;;;;;72.38;40.65;;;26.20;43.40;;;;;;6188390;28;83580;-65
2022/10/26 13:47:08;;;;;;;67.25;38.22;;;26.20;43.50;;;;;;6184385;28;84629;-64
2022/10/26 13:50:08;;;;;;;122.95;66.53;;;26.30;43.10;;;;;;6183435;28;83077;-64
2022/10/26 13:53:10;;;;;;;91.90;48.47;;;26.30;43.30;;;;;;6174400;28;85826;-65
2022/10/26 13:56:10;;;;;;;93.40;53.58;;;26.40;42.90;;;;;;6180796;28;84233;-64
2022/10/26 13:59:11;;;;;;;79.55;40.80;;;26.40;43.50;;;;;;6184639;28;83475;-64
2022/10/26 14:02:11;;;;;;;85.15;41.47;;;26.40;43.60;;;;;;6170602;28;91138;-65
2022/10/26 14:05:12;;;;;;;70.07;35.28;;;26.40;43.60;;;;;;6183970;28;89616;-64
2022/10/26 14:08:12;;;;;;;55.90;28.88;;;26.30;43.40;;;;;;6213103;28;89870;-67
2022/10/26 14:11:13;;;;;;;48.20;25.60;;;26.40;43.60;;;;;;6218851;28;83802;-65
2022/10/26 14:14:14;;;;;;;41.25;21.38;;;26.40;43.70;;;;;;6218928;28;83791;-65
2022/10/26 14:17:14;;;;;;;31.58;17.77;;;26.40;43.50;;;;;;6209736;28;86056;-64
2022/10/26 14:20:15;;;;;;;29.15;13.93;;;26.30;43.50;;;;;;6206223;28;83979;-64
2022/10/26 14:23:15;;;;;;;24.23;11.65;;;26.30;43.40;;;;;;6203658;28;83466;-66
2022/10/26 14:26:16;;;;;;;19.60;9.48;;;26.30;43.40;;;;;;6209879;28;83064;-66
2022/10/26 14:29:17;;;;;;;20.70;7.93;;;26.30;43.30;;;;;;6215052;27;81840;-65
2022/10/26 14:32:17;;;;;;;18.17;7.38;;;26.30;43.60;;;;;;6221571;28;81191;-65
2022/10/26 14:35:18;;;;;;;12.18;5.95;;;26.30;43.80;;;;;;6218948;28;80252;-65
2022/10/26 14:38:18;;;;;;;11.88;6.00;;;26.30;43.80;;;;;;6202440;28;81639;-66
2022/10/26 14:41:19;;;;;;;10.40;5.22;;;26.20;43.80;;;;;;6218723;28;80366;-65
2022/10/26 14:44:19;;;;;;;10.05;5.30;;;26.20;43.70;;;;;;6203247;28;83708;-65
2022/10/26 14:47:20;;;;;;;10.68;5.20;;;26.20;43.90;;;;;;6215477;28;81088;-68
2022/10/26 14:50:22;;;;;;;9.65;5.35;;;26.10;43.90;;;;;;6212429;28;84000;-67
2022/10/26 14:53:22;;;;;;;10.15;4.53;;;26.10;44.80;;;;;;6217986;28;80349;-69
2022/10/26 14:56:23;;;;;;;9.05;3.63;;;26.00;44.20;;;;;;6219262;28;81046;-67
2022/10/26 14:59:23;;;;;;;7.20;4.22;;;26.00;44.40;;;;;;6220225;28;81231;-68
2022/10/26 15:02:24;;;;;;;9.77;3.67;;;26.00;44.60;;;;;;6217951;28;83192;-66
2022/10/26 15:05:27;;;;;;;9.45;3.20;;;25.90;44.80;;;;;;6213692;28;80401;-62
2022/10/26 15:08:28;;;;;;;9.82;3.30;;;25.80;44.60;;;;;;6190798;28;85322;-67
2022/10/26 15:11:28;;;;;;;8.98;2.83;;;25.70;44.50;;;;;;6191865;28;80567;-64
2022/10/26 15:14:29;;;;;;;10.30;3.47;;;25.60;44.60;;;;;;6201571;28;80936;-65
2022/10/26 15:17:31;;;;;;;8.48;3.15;;;25.50;44.60;;;;;;6215467;28;80755;-67
2022/10/26 15:20:31;;;;;;;6.07;2.72;;;25.50;45.00;;;;;;6192053;28;83005;-65
2022/10/26 15:23:32;;;;;;;11.98;3.58;;;25.50;45.10;;;;;;6206864;28;81269;-62
2022/10/26 15:26:32;;;;;;;8.43;2.92;;;25.40;45.40;;;;;;6221545;28;80306;-67
2022/10/26 15:29:33;;;;;;;13.25;3.17;;;25.40;45.60;;;;;;6213330;28;80959;-67
2022/10/26 15:32:33;;;;;;;11.35;3.35;;;25.30;45.80;;;;;;6215837;28;81295;-69